createdAt,value
2022-11-15T00:02:11.830Z,9.14
2022-11-15T00:04:58.542Z,9.16
2022-11-15T00:07:55.686Z,9.24
2022-11-15T00:10:42.068Z,9.30
2022-11-15T00:13:29.055Z,9.26
2022-11-15T00:16:15.443Z,9.22
2022-11-15T00:19:01.450Z,9.19
2022-11-15T00:21:47.630Z,9.14
2022-11-15T00:24:35.175Z,9.15
2022-11-15T00:27:21.255Z,9.16
2022-11-15T00:30:08.428Z,9.16
2022-11-15T00:32:54.697Z,9.19
2022-11-15T00:35:41.243Z,9.22
2022-11-15T00:38:41.223Z,9.28
2022-11-15T00:41:28.984Z,9.32
2022-11-15T00:44:15.217Z,9.35
2022-11-15T00:47:01.532Z,9.37
2022-11-15T00:49:47.936Z,9.39
2022-11-15T00:52:34.300Z,9.42
2022-11-15T00:55:21.264Z,9.39
2022-11-15T00:58:08.750Z,9.39
2022-11-15T01:00:55.657Z,9.36
2022-11-15T01:03:43.073Z,9.36
2022-11-15T01:06:29.631Z,9.36
2022-11-15T01:09:15.949Z,9.36
2022-11-15T01:12:02.031Z,9.35
2022-11-15T01:14:49.882Z,9.36
2022-11-15T01:17:35.968Z,9.37
2022-11-15T01:20:22.162Z,9.33
2022-11-15T01:23:08.745Z,9.32
2022-11-15T01:26:00.836Z,9.31
2022-11-15T01:28:47.209Z,9.27
2022-11-15T01:31:34.751Z,9.28
2022-11-15T01:34:21.521Z,9.27
2022-11-15T01:37:08.024Z,9.28
2022-11-15T01:39:54.227Z,9.27
2022-11-15T01:42:41.280Z,9.28
2022-11-15T01:45:28.085Z,9.27
2022-11-15T01:48:16.321Z,9.26
2022-11-15T01:51:06.965Z,9.25
2022-11-15T01:54:00.689Z,9.23
2022-11-15T01:56:50.666Z,9.20
2022-11-15T01:59:38.568Z,9.19
2022-11-15T02:02:24.734Z,9.17
2022-11-15T02:05:12.499Z,9.19
2022-11-15T02:07:59.449Z,9.20
2022-11-15T02:10:45.804Z,9.17
2022-11-15T02:13:32.604Z,9.14
2022-11-15T02:16:29.736Z,9.09
2022-11-15T02:19:29.329Z,9.09
2022-11-15T02:22:29.991Z,9.11
2022-11-15T02:25:40.220Z,9.12
2022-11-15T02:28:50.289Z,9.15
2022-11-15T02:31:47.958Z,9.17
2022-11-15T02:34:44.446Z,9.17
2022-11-15T02:37:38.801Z,9.12
2022-11-15T02:40:36.526Z,9.07
2022-11-15T02:43:47.737Z,9.03
2022-11-15T02:46:58.522Z,8.97
2022-11-15T02:49:48.725Z,8.92
2022-11-15T02:52:34.926Z,8.77
2022-11-15T02:55:30.063Z,8.66
2022-11-15T02:58:51.951Z,8.60
2022-11-15T03:01:52.391Z,8.65
2022-11-15T03:04:46.614Z,8.77
2022-11-15T03:07:40.916Z,8.89
2022-11-15T03:10:34.709Z,8.97
2022-11-15T03:13:28.587Z,9.04
2022-11-15T03:16:21.783Z,9.10
2022-11-15T03:19:15.380Z,9.13
2022-11-15T03:22:05.606Z,9.27
2022-11-15T03:24:56.073Z,9.25
2022-11-15T03:27:48.755Z,9.31
2022-11-15T03:30:36.669Z,9.26
2022-11-15T03:33:24.022Z,9.26
2022-11-15T03:36:12.500Z,9.25
2022-11-15T03:39:03.952Z,9.20
2022-11-15T03:41:55.062Z,9.18
2022-11-15T03:44:48.153Z,9.21
2022-11-15T03:47:38.281Z,9.23
2022-11-15T03:50:26.214Z,9.26
2022-11-15T03:53:14.488Z,9.33
2022-11-15T03:56:01.026Z,9.35
2022-11-15T03:58:47.211Z,9.32
2022-11-15T04:01:33.839Z,9.31
2022-11-15T04:04:20.318Z,9.37
2022-11-15T04:07:07.198Z,9.38
2022-11-15T04:10:04.140Z,9.38
2022-11-15T04:12:50.314Z,9.39
2022-11-15T04:15:37.269Z,9.45
2022-11-15T04:18:23.571Z,9.47
2022-11-15T04:21:27.705Z,9.48
2022-11-15T04:24:14.316Z,9.49
2022-11-15T04:27:02.135Z,9.50
2022-11-15T04:29:48.955Z,9.55
2022-11-15T04:32:35.690Z,9.54
2022-11-15T04:35:21.925Z,9.52
2022-11-15T04:38:10.853Z,9.51
2022-11-15T04:40:57.341Z,9.51
2022-11-15T04:43:44.785Z,9.51
2022-11-15T04:46:30.924Z,9.48
2022-11-15T04:49:17.216Z,9.40
2022-11-15T04:52:03.302Z,9.37
2022-11-15T04:54:49.637Z,9.36
2022-11-15T04:57:35.901Z,9.37
2022-11-15T05:00:23.820Z,9.36
2022-11-15T05:03:29.341Z,9.38
2022-11-15T05:06:15.843Z,9.38
2022-11-15T05:09:01.975Z,9.39
2022-11-15T05:11:48.624Z,9.35
2022-11-15T05:14:34.971Z,9.35
2022-11-15T05:17:22.605Z,9.34
2022-11-15T05:20:09.759Z,9.34
2022-11-15T05:22:56.608Z,9.31
2022-11-15T05:25:42.814Z,9.33
2022-11-15T05:28:28.897Z,9.31
2022-11-15T05:31:17.212Z,9.30
2022-11-15T05:34:06.766Z,9.30
2022-11-15T05:36:53.405Z,9.28
2022-11-15T05:39:39.757Z,9.25
2022-11-15T05:42:28.946Z,9.23
2022-11-15T05:45:15.432Z,9.24
2022-11-15T05:48:06.681Z,9.27
2022-11-15T05:50:54.981Z,9.27
2022-11-15T05:53:41.260Z,9.27
2022-11-15T05:56:27.824Z,9.31
2022-11-15T05:59:15.083Z,9.30
2022-11-15T06:02:01.570Z,9.28
2022-11-15T06:04:47.529Z,9.22
2022-11-15T06:07:35.273Z,9.17
2022-11-15T06:10:21.895Z,9.16
2022-11-15T06:13:08.318Z,9.04
2022-11-15T06:15:57.430Z,8.96
2022-11-15T06:18:43.817Z,8.92
2022-11-15T06:21:30.103Z,8.90
2022-11-15T06:24:17.830Z,8.97
2022-11-15T06:27:04.251Z,9.06
2022-11-15T06:29:50.414Z,9.13
2022-11-15T06:32:36.596Z,9.25
2022-11-15T06:35:23.086Z,9.47
2022-11-15T06:38:11.012Z,9.46
2022-11-15T06:41:03.632Z,9.38
2022-11-15T06:43:49.937Z,9.24
2022-11-15T06:46:36.333Z,9.16
2022-11-15T06:49:22.989Z,9.15
2022-11-15T06:52:09.341Z,9.14
2022-11-15T06:54:55.648Z,9.13
2022-11-15T06:57:50.014Z,9.15
2022-11-15T07:00:36.298Z,9.18
2022-11-15T07:03:22.491Z,9.21
2022-11-15T07:06:10.036Z,9.25
2022-11-15T07:08:56.421Z,9.27
2022-11-15T07:11:42.908Z,9.26
2022-11-15T07:14:31.102Z,9.24
2022-11-15T07:17:17.696Z,9.26
2022-11-15T07:20:04.757Z,9.29
2022-11-15T07:22:51.362Z,9.33
2022-11-15T07:25:37.969Z,9.33
2022-11-15T07:28:23.951Z,9.43
2022-11-15T07:31:12.202Z,9.38
2022-11-15T07:33:58.634Z,9.39
2022-11-15T07:36:44.678Z,9.45
2022-11-15T07:39:31.179Z,9.55
2022-11-15T07:42:35.120Z,9.57
2022-11-15T07:45:21.733Z,9.59
2022-11-15T07:48:09.908Z,9.67
2022-11-15T07:50:56.007Z,9.69
2022-11-15T07:53:42.640Z,9.72
2022-11-15T07:56:29.013Z,9.72
2022-11-15T07:59:15.331Z,9.74
2022-11-15T08:02:01.738Z,9.74
2022-11-15T08:04:49.274Z,9.73
2022-11-15T08:07:35.788Z,9.72
2022-11-15T08:10:22.411Z,9.70
2022-11-15T08:13:10.569Z,9.69
2022-11-15T08:16:01.000Z,9.73
2022-11-15T08:18:47.486Z,9.74
2022-11-15T08:21:35.992Z,9.76
2022-11-15T08:24:22.357Z,9.80
2022-11-15T08:27:15.846Z,9.81
2022-11-15T08:30:02.517Z,9.83
2022-11-15T08:32:48.692Z,9.85
2022-11-15T08:35:35.134Z,9.88
2022-11-15T08:38:22.864Z,9.96
2022-11-15T08:41:15.493Z,9.97
2022-11-15T08:44:01.882Z,10.01
2022-11-15T08:46:48.506Z,10.03
2022-11-15T08:49:35.215Z,10.10
2022-11-15T08:52:21.817Z,10.11
2022-11-15T08:55:10.592Z,10.12
2022-11-15T08:57:59.239Z,10.10
2022-11-15T09:00:45.462Z,10.10
2022-11-15T09:03:32.306Z,10.09
2022-11-15T09:06:18.726Z,10.13
2022-11-15T09:09:05.708Z,10.17
2022-11-15T09:11:56.796Z,10.24
2022-11-15T09:14:46.014Z,10.27
2022-11-15T09:17:32.060Z,10.37
2022-11-15T09:20:18.460Z,10.47
2022-11-15T09:23:06.321Z,10.55
2022-11-15T09:25:53.022Z,10.63
2022-11-15T09:28:42.814Z,10.63
2022-11-15T09:31:30.386Z,10.61
2022-11-15T09:34:17.049Z,10.60
2022-11-15T09:37:03.749Z,10.58
2022-11-15T09:39:50.148Z,10.56
2022-11-15T09:42:50.825Z,10.60
2022-11-15T09:45:49.247Z,10.58
2022-11-15T09:48:55.044Z,10.59
2022-11-15T09:51:47.967Z,10.54
2022-11-15T09:57:17.149Z,10.53
2022-11-15T09:59:53.303Z,10.52
2022-11-15T10:02:36.825Z,10.52
2022-11-15T10:05:05.382Z,10.52
2022-11-15T10:07:40.500Z,10.50
2022-11-15T10:10:17.064Z,10.49
2022-11-15T10:12:50.009Z,10.47
2022-11-15T10:15:23.474Z,10.44
2022-11-15T10:18:21.520Z,10.40
2022-11-15T10:20:51.404Z,10.39
2022-11-15T10:23:22.408Z,10.35
2022-11-15T10:25:54.937Z,10.35
2022-11-15T10:28:26.950Z,10.38
2022-11-15T10:30:56.399Z,10.36
2022-11-15T10:33:36.102Z,10.38
2022-11-15T10:36:32.736Z,10.34
2022-11-15T10:39:00.861Z,10.36
2022-11-15T10:41:40.326Z,10.39
2022-11-15T10:44:24.313Z,10.42
2022-11-15T10:47:21.479Z,10.44
2022-11-15T10:49:58.272Z,10.45
2022-11-15T10:52:26.637Z,10.50
2022-11-15T10:54:58.815Z,10.54
2022-11-15T10:57:29.305Z,10.71
2022-11-15T11:00:00.516Z,10.65
2022-11-15T11:02:32.722Z,10.68
2022-11-15T11:05:02.851Z,10.74
2022-11-15T11:07:33.136Z,10.75
2022-11-15T11:10:13.296Z,10.83
2022-11-15T11:12:50.665Z,10.85
2022-11-15T11:15:19.701Z,10.86
2022-11-15T11:17:59.772Z,10.90
2022-11-15T11:20:36.531Z,10.96
2022-11-15T11:23:25.885Z,10.99
2022-11-15T11:26:15.072Z,11.06
2022-11-15T11:28:52.689Z,11.13
2022-11-15T11:31:32.418Z,11.19
2022-11-15T11:34:10.582Z,11.27
2022-11-15T11:36:44.422Z,11.36
2022-11-15T11:39:26.190Z,11.38
2022-11-15T11:42:04.222Z,11.37
2022-11-15T11:44:40.570Z,11.36
2022-11-15T11:47:12.917Z,11.41
2022-11-15T11:49:47.057Z,11.41
2022-11-15T11:52:20.492Z,11.42
2022-11-15T11:54:58.347Z,11.45
2022-11-15T11:57:35.373Z,11.48
2022-11-15T12:00:07.645Z,11.48
2022-11-15T12:02:43.255Z,11.55
2022-11-15T12:05:19.040Z,11.57
2022-11-15T12:07:50.707Z,11.71
2022-11-15T12:10:24.768Z,11.79
2022-11-15T12:13:00.703Z,11.86
2022-11-15T12:15:33.136Z,11.83
2022-11-15T12:18:03.378Z,11.83
2022-11-15T12:20:35.708Z,11.89
2022-11-15T12:23:10.476Z,11.93
2022-11-15T12:25:47.442Z,12.02
2022-11-15T12:28:21.538Z,12.06
2022-11-15T12:30:54.986Z,12.12
2022-11-15T12:33:36.804Z,12.14
2022-11-15T12:36:06.542Z,12.23
2022-11-15T12:38:55.960Z,12.30
2022-11-15T12:41:25.215Z,12.34
2022-11-15T12:43:53.963Z,12.37
2022-11-15T12:46:38.400Z,12.40
2022-11-15T12:49:13.684Z,12.39
2022-11-15T12:52:08.139Z,12.38
2022-11-15T12:54:57.134Z,12.47
2022-11-15T12:57:33.491Z,12.51
2022-11-15T13:00:04.250Z,12.60
2022-11-15T13:02:35.468Z,12.66
2022-11-15T13:05:36.874Z,12.55
2022-11-15T13:08:04.802Z,12.65
2022-11-15T13:10:35.652Z,12.75
2022-11-15T13:13:05.715Z,12.90
2022-11-15T13:15:48.646Z,12.88
2022-11-15T13:18:32.750Z,12.86
2022-11-15T13:21:02.985Z,12.94
2022-11-15T13:23:30.261Z,13.16
2022-11-15T13:26:17.413Z,13.01
2022-11-15T13:28:48.413Z,12.97
2022-11-15T13:31:25.089Z,12.97
2022-11-15T13:33:54.166Z,13.06
2022-11-15T13:36:24.564Z,13.06
2022-11-15T13:39:01.257Z,13.10
2022-11-15T13:41:31.970Z,13.03
2022-11-15T13:44:01.833Z,13.04
2022-11-15T13:46:30.933Z,13.11
2022-11-15T13:49:00.585Z,12.96
2022-11-15T13:51:42.247Z,13.03
2022-11-15T13:54:21.436Z,13.00
2022-11-15T13:56:56.710Z,12.94
2022-11-15T13:59:27.830Z,12.91
2022-11-15T14:01:57.108Z,12.93
2022-11-15T14:04:27.527Z,12.74
2022-11-15T14:06:58.531Z,12.68
2022-11-15T14:09:33.738Z,12.76
2022-11-15T14:12:04.733Z,12.89
2022-11-15T14:14:32.431Z,13.02
2022-11-15T14:17:02.413Z,12.80
2022-11-15T14:19:39.288Z,12.73
2022-11-15T14:22:18.146Z,12.71
2022-11-15T14:24:47.808Z,12.62
2022-11-15T14:27:25.929Z,12.60
2022-11-15T14:29:54.283Z,12.56
2022-11-15T14:32:23.668Z,12.61
2022-11-15T14:34:56.279Z,12.66
2022-11-15T14:37:26.612Z,12.71
2022-11-15T14:39:55.287Z,12.64
2022-11-15T14:42:25.617Z,12.51
2022-11-15T14:44:53.998Z,12.45
2022-11-15T14:47:21.866Z,12.44
2022-11-15T14:49:49.904Z,12.43
2022-11-15T14:52:32.574Z,12.40
2022-11-15T14:55:02.331Z,12.46
2022-11-15T14:57:32.129Z,12.39
2022-11-15T14:59:59.864Z,12.37
2022-11-15T15:02:41.588Z,12.35
2022-11-15T15:05:17.252Z,12.31
2022-11-15T15:07:45.194Z,12.18
2022-11-15T15:13:03.423Z,12.01
2022-11-15T15:15:35.291Z,11.95
2022-11-15T15:18:03.777Z,11.92
2022-11-15T15:20:31.576Z,11.83
2022-11-15T15:22:59.999Z,11.78
2022-11-15T15:25:30.762Z,11.75
2022-11-15T15:27:58.583Z,11.73
2022-11-15T15:30:31.159Z,11.71
2022-11-15T15:32:59.475Z,11.70
2022-11-15T15:35:32.236Z,11.66
2022-11-15T15:38:00.684Z,11.56
2022-11-15T15:40:30.323Z,11.54
2022-11-15T15:42:58.051Z,11.56
2022-11-15T15:45:29.200Z,11.58
2022-11-15T15:47:57.302Z,11.59
2022-11-15T15:50:27.902Z,11.61
2022-11-15T15:52:57.427Z,11.62
2022-11-15T15:55:25.949Z,11.62
2022-11-15T15:57:54.153Z,11.61
2022-11-15T16:00:24.456Z,11.65
2022-11-15T16:02:54.158Z,11.63
2022-11-15T16:05:22.785Z,11.58
2022-11-15T16:07:50.698Z,11.54
2022-11-15T16:10:25.949Z,11.53
2022-11-15T16:12:55.042Z,11.51
2022-11-15T16:15:25.599Z,11.45
2022-11-15T16:21:18.464Z,11.37
2022-11-15T16:23:46.852Z,11.34
2022-11-15T16:26:21.995Z,11.30
2022-11-15T16:28:50.231Z,11.30
2022-11-15T16:31:22.226Z,11.28
2022-11-15T16:33:49.952Z,11.25
2022-11-15T16:36:29.548Z,11.22
2022-11-15T16:38:59.744Z,11.23
2022-11-15T16:41:27.849Z,11.22
2022-11-15T16:43:56.165Z,11.21
2022-11-15T16:46:25.278Z,11.20
2022-11-15T16:48:54.794Z,11.13
2022-11-15T16:51:24.626Z,11.09
2022-11-15T16:53:52.893Z,11.06
2022-11-15T16:56:25.713Z,11.02
2022-11-15T16:58:54.625Z,10.99
2022-11-15T17:01:26.169Z,10.95
2022-11-15T17:03:54.446Z,11.01
2022-11-15T17:06:24.338Z,11.05
2022-11-15T17:08:52.232Z,11.09
2022-11-15T17:11:22.287Z,11.12
2022-11-15T17:13:50.571Z,11.14
2022-11-15T17:16:19.338Z,11.15
2022-11-15T17:18:52.675Z,11.16
2022-11-15T17:21:23.451Z,11.09
2022-11-15T17:23:51.105Z,10.99
2022-11-15T17:26:39.176Z,10.93
2022-11-15T17:29:08.252Z,10.89
2022-11-15T17:31:37.060Z,10.84
2022-11-15T17:34:06.258Z,10.83
2022-11-15T17:36:35.996Z,10.80
2022-11-15T17:39:06.083Z,10.77
2022-11-15T17:41:34.152Z,10.77
2022-11-15T17:44:03.412Z,10.76
2022-11-15T17:46:32.327Z,10.76
2022-11-15T17:49:00.821Z,10.72
2022-11-15T17:51:28.582Z,10.69
2022-11-15T17:53:57.705Z,10.70
2022-11-15T17:56:28.448Z,10.69
2022-11-15T17:58:57.281Z,10.72
2022-11-15T18:01:26.860Z,10.76
2022-11-15T18:03:55.293Z,10.77
2022-11-15T18:06:24.536Z,10.79
2022-11-15T18:08:53.658Z,10.82
2022-11-15T18:11:24.193Z,10.84
2022-11-15T18:13:53.737Z,10.84
2022-11-15T18:16:24.639Z,10.83
2022-11-15T18:18:52.529Z,10.82
2022-11-15T18:21:21.833Z,10.80
2022-11-15T18:23:50.476Z,10.79
2022-11-15T18:26:23.074Z,10.79
2022-11-15T18:28:57.584Z,10.75
2022-11-15T18:31:27.285Z,10.74
2022-11-15T18:33:56.054Z,10.73
2022-11-15T18:36:25.590Z,10.72
2022-11-15T18:38:55.469Z,10.69
2022-11-15T18:41:25.377Z,10.72
2022-11-15T18:43:54.508Z,10.73
2022-11-15T18:46:24.124Z,10.77
2022-11-15T18:48:53.429Z,10.78
2022-11-15T18:51:23.082Z,10.77
2022-11-15T18:53:54.040Z,10.72
2022-11-15T18:56:23.043Z,10.71
2022-11-15T18:58:53.029Z,10.67
2022-11-15T19:01:24.603Z,10.67
2022-11-15T19:03:57.145Z,10.63
2022-11-15T19:06:27.865Z,10.67
2022-11-15T19:08:58.491Z,10.66
2022-11-15T19:11:28.847Z,10.70
2022-11-15T19:13:59.902Z,10.73
2022-11-15T19:16:29.766Z,10.76
2022-11-15T19:18:58.898Z,10.78
2022-11-15T19:21:28.040Z,10.69
2022-11-15T19:23:55.934Z,10.63
2022-11-15T19:26:24.854Z,10.58
2022-11-15T19:28:53.836Z,10.52
2022-11-15T19:31:23.844Z,10.47
2022-11-15T19:33:53.827Z,10.45
2022-11-15T19:36:24.354Z,10.41
2022-11-15T19:38:52.066Z,10.43
2022-11-15T19:41:22.257Z,10.40
2022-11-15T19:43:50.827Z,10.40
2022-11-15T19:46:20.442Z,10.42
2022-11-15T19:48:48.808Z,10.49
2022-11-15T19:51:21.426Z,10.55
2022-11-15T19:53:50.226Z,10.57
2022-11-15T19:56:20.013Z,10.61
2022-11-15T19:58:51.428Z,10.64
2022-11-15T20:01:21.196Z,10.66
2022-11-15T20:03:50.102Z,10.69
2022-11-15T20:06:20.684Z,10.69
2022-11-15T20:08:48.494Z,10.69
2022-11-15T20:11:16.978Z,10.71
2022-11-15T20:13:44.708Z,10.70
2022-11-15T20:16:16.661Z,10.65
2022-11-15T20:18:45.266Z,10.61
2022-11-15T20:21:13.466Z,10.56
2022-11-15T20:23:43.311Z,10.54
2022-11-15T20:26:12.461Z,10.53
2022-11-15T20:28:41.265Z,10.55
2022-11-15T20:31:11.218Z,10.57
2022-11-15T20:33:39.060Z,10.61
2022-11-15T20:36:07.429Z,10.62
2022-11-15T20:38:35.626Z,10.65
2022-11-15T20:41:05.317Z,10.68
2022-11-15T20:43:33.032Z,10.67
2022-11-15T20:46:00.795Z,10.65
2022-11-15T20:48:28.459Z,10.61
2022-11-15T20:51:05.433Z,10.61
2022-11-15T20:53:33.174Z,10.58
2022-11-15T20:56:08.512Z,10.55
2022-11-15T20:58:37.400Z,10.53
2022-11-15T21:01:06.932Z,10.52
2022-11-15T21:03:35.695Z,10.53
2022-11-15T21:06:03.816Z,10.55
2022-11-15T21:08:52.454Z,10.56
2022-11-15T21:11:40.933Z,10.56
2022-11-15T21:14:09.886Z,10.53
2022-11-15T21:16:38.200Z,10.52
2022-11-15T21:19:06.931Z,10.52
2022-11-15T21:21:34.916Z,10.53
2022-11-15T21:24:03.611Z,10.56
2022-11-15T21:26:32.811Z,10.59
2022-11-15T21:29:00.730Z,10.66
2022-11-15T21:31:28.750Z,10.65
2022-11-15T21:33:56.618Z,10.67
2022-11-15T21:36:24.980Z,10.67
2022-11-15T21:38:53.586Z,10.68
2022-11-15T21:41:22.030Z,10.69
2022-11-15T21:43:51.115Z,10.71
2022-11-15T21:46:18.889Z,10.71
2022-11-15T21:48:46.583Z,10.72
2022-11-15T21:51:14.502Z,10.74
2022-11-15T21:53:48.037Z,10.74
2022-11-15T21:56:16.440Z,10.74
2022-11-15T21:58:44.124Z,10.75
2022-11-15T22:01:31.369Z,10.75
2022-11-15T22:03:59.273Z,10.73
2022-11-15T22:06:27.592Z,10.70
2022-11-15T22:08:55.451Z,10.71
2022-11-15T22:11:23.143Z,10.69
2022-11-15T22:13:50.834Z,10.67
2022-11-15T22:16:20.560Z,10.67
2022-11-15T22:18:48.343Z,10.64
2022-11-15T22:21:18.089Z,10.60
2022-11-15T22:23:46.881Z,10.60
2022-11-15T22:26:22.035Z,10.54
2022-11-15T22:28:51.152Z,10.53
2022-11-15T22:31:20.484Z,10.50
2022-11-15T22:33:48.484Z,10.50
2022-11-15T22:36:16.242Z,10.49
2022-11-15T22:38:44.629Z,10.47
2022-11-15T22:41:12.618Z,10.44
2022-11-15T22:43:40.434Z,10.43
2022-11-15T22:46:08.477Z,10.42
2022-11-15T22:48:39.442Z,10.42
2022-11-15T22:51:08.289Z,10.42
2022-11-15T22:53:36.169Z,10.42
2022-11-15T22:56:06.439Z,10.43
2022-11-15T22:58:35.002Z,10.44
2022-11-15T23:01:05.168Z,10.42
2022-11-15T23:03:34.227Z,10.45
2022-11-15T23:06:05.301Z,10.44
2022-11-15T23:08:33.261Z,10.44
2022-11-15T23:11:19.482Z,10.42
2022-11-15T23:13:47.734Z,10.42
2022-11-15T23:16:25.678Z,10.39
2022-11-15T23:18:55.427Z,10.38
2022-11-15T23:21:43.804Z,10.39
2022-11-15T23:24:12.827Z,10.39
2022-11-15T23:26:41.431Z,10.41
2022-11-15T23:29:10.931Z,10.42
2022-11-15T23:32:01.974Z,10.39
2022-11-15T23:34:31.613Z,10.42
2022-11-15T23:37:00.867Z,10.40
2022-11-15T23:39:29.179Z,10.39
2022-11-15T23:41:56.945Z,10.38
2022-11-15T23:44:25.500Z,10.40
2022-11-15T23:46:53.725Z,10.42
2022-11-15T23:49:21.912Z,10.44
2022-11-15T23:51:49.986Z,10.40
2022-11-15T23:54:19.583Z,10.46
2022-11-15T23:56:47.470Z,10.43
2022-11-15T23:59:15.213Z,10.40
